createdAt,value
2023-02-24T00:01:19.038Z,1.50
2023-02-24T00:03:23.900Z,1.27
2023-02-24T00:05:27.289Z,1.80
2023-02-24T00:07:30.712Z,1.48
2023-02-24T00:09:34.427Z,1.63
2023-02-24T00:11:39.809Z,1.63
2023-02-24T00:13:46.451Z,1.60
2023-02-24T00:16:01.025Z,1.48
2023-02-24T00:18:07.158Z,1.42
2023-02-24T00:20:13.371Z,1.50
2023-02-24T00:22:16.671Z,1.75
2023-02-24T00:24:20.286Z,1.60
2023-02-24T00:26:23.528Z,1.30
2023-02-24T00:28:28.319Z,1.70
2023-02-24T00:30:33.125Z,1.45
2023-02-24T00:32:37.121Z,1.80
2023-02-24T00:34:40.381Z,1.60
2023-02-24T00:36:44.997Z,1.77
2023-02-24T00:38:48.388Z,2.00
2023-02-24T00:40:52.099Z,1.75
2023-02-24T00:42:55.498Z,1.58
2023-02-24T00:44:58.938Z,1.58
2023-02-24T00:47:03.282Z,2.10
2023-02-24T00:49:10.545Z,1.17
2023-02-24T00:51:16.728Z,1.60
2023-02-24T00:53:21.559Z,1.85
2023-02-24T00:55:27.592Z,1.98
2023-02-24T00:57:31.098Z,1.63
2023-02-24T00:59:34.515Z,1.50
2023-02-24T01:01:38.244Z,1.80
2023-02-24T01:03:43.209Z,1.48
2023-02-24T01:05:46.603Z,1.88
2023-02-24T01:07:50.334Z,1.60
2023-02-24T01:09:55.248Z,1.85
2023-02-24T01:12:18.202Z,1.45
2023-02-24T01:14:24.851Z,2.17
2023-02-24T01:16:28.704Z,1.23
2023-02-24T01:18:32.114Z,1.55
2023-02-24T01:20:38.603Z,1.60
2023-02-24T01:22:43.130Z,1.50
2023-02-24T01:24:46.934Z,2.10
2023-02-24T01:26:51.830Z,1.40
2023-02-24T01:28:56.677Z,1.38
2023-02-24T01:31:03.216Z,1.33
2023-02-24T01:33:08.303Z,1.80
2023-02-24T01:35:14.396Z,2.17
2023-02-24T01:37:19.406Z,1.40
2023-02-24T01:39:22.980Z,1.67
2023-02-24T01:41:27.820Z,2.53
2023-02-24T01:43:33.214Z,2.05
2023-02-24T01:45:40.076Z,1.58
2023-02-24T01:47:47.360Z,1.67
2023-02-24T01:49:54.037Z,1.67
2023-02-24T01:52:02.164Z,1.80
2023-02-24T01:54:08.559Z,2.15
2023-02-24T01:56:13.891Z,1.77
2023-02-24T01:58:23.467Z,1.63
2023-02-24T02:00:38.498Z,1.75
2023-02-24T02:02:47.534Z,2.20
2023-02-24T02:04:54.074Z,1.92
2023-02-24T02:06:57.566Z,1.42
2023-02-24T02:09:01.862Z,1.52
2023-02-24T02:11:07.817Z,1.50
2023-02-24T02:13:13.196Z,1.63
2023-02-24T02:15:20.807Z,2.17
2023-02-24T02:17:32.159Z,1.40
2023-02-24T02:20:15.865Z,1.63
2023-02-24T02:23:09.642Z,1.55
2023-02-24T02:25:20.607Z,1.88
2023-02-24T02:27:34.783Z,1.92
2023-02-24T02:30:14.545Z,1.88
2023-02-24T02:33:01.974Z,1.58
2023-02-24T02:35:12.233Z,1.60
2023-02-24T02:37:22.423Z,1.60
2023-02-24T02:39:36.943Z,2.00
2023-02-24T02:41:48.835Z,1.88
2023-02-24T02:43:58.020Z,2.03
2023-02-24T02:46:09.578Z,1.75
2023-02-24T02:50:27.114Z,1.67
2023-02-24T02:52:34.851Z,1.58
2023-02-24T02:54:49.669Z,1.60
2023-02-24T02:56:59.343Z,1.77
2023-02-24T02:59:05.384Z,1.58
2023-02-24T03:01:12.025Z,1.45
2023-02-24T03:03:19.660Z,1.90
2023-02-24T03:05:32.192Z,1.45
2023-02-24T03:07:42.124Z,1.67
2023-02-24T03:09:51.668Z,2.13
2023-02-24T03:11:59.892Z,1.38
2023-02-24T03:14:05.782Z,1.73
2023-02-24T03:16:11.724Z,1.40
2023-02-24T03:18:20.071Z,1.70
2023-02-24T03:20:29.498Z,1.40
2023-02-24T03:22:41.160Z,1.70
2023-02-24T03:24:46.446Z,1.60
2023-02-24T03:27:06.893Z,1.77
2023-02-24T03:29:19.305Z,1.40
2023-02-24T03:31:28.949Z,1.95
2023-02-24T03:33:38.366Z,1.52
2023-02-24T03:35:44.152Z,1.65
2023-02-24T03:37:49.932Z,2.03
2023-02-24T03:39:54.609Z,2.15
2023-02-24T03:42:05.561Z,1.90
2023-02-24T03:44:12.360Z,1.40
2023-02-24T03:46:17.089Z,1.33
2023-02-24T03:48:22.913Z,1.95
2023-02-24T03:50:27.131Z,1.42
2023-02-24T03:52:47.104Z,1.83
2023-02-24T03:55:07.527Z,1.20
2023-02-24T03:57:26.014Z,1.42
2023-02-24T03:59:46.729Z,1.40
2023-02-24T04:01:58.119Z,2.20
2023-02-24T04:04:14.696Z,1.20
2023-02-24T04:06:35.502Z,1.58
2023-02-24T04:08:47.688Z,1.80
2023-02-24T04:10:57.538Z,1.50
2023-02-24T04:13:11.296Z,2.08
2023-02-24T04:15:19.999Z,1.40
2023-02-24T04:17:28.516Z,1.48
2023-02-24T04:19:38.506Z,1.48
2023-02-24T04:21:44.991Z,1.38
2023-02-24T04:23:57.148Z,1.45
2023-02-24T04:26:01.557Z,1.63
2023-02-24T04:28:08.136Z,1.50
2023-02-24T04:30:14.218Z,1.30
2023-02-24T04:32:22.174Z,1.58
2023-02-24T04:34:26.478Z,1.98
2023-02-24T04:36:30.105Z,1.20
2023-02-24T04:38:33.637Z,1.50
2023-02-24T04:40:40.928Z,1.40
2023-02-24T04:42:48.970Z,1.50
2023-02-24T04:44:53.822Z,1.58
2023-02-24T04:46:57.311Z,1.40
2023-02-24T04:49:02.311Z,1.42
2023-02-24T04:51:06.716Z,1.42
2023-02-24T04:53:13.061Z,1.55
2023-02-24T04:55:17.298Z,1.13
2023-02-24T04:57:22.196Z,1.23
2023-02-24T04:59:25.855Z,1.10
2023-02-24T05:01:31.367Z,1.42
2023-02-24T05:03:36.056Z,1.55
2023-02-24T05:05:39.891Z,2.00
2023-02-24T05:07:47.599Z,1.65
2023-02-24T05:09:50.985Z,1.40
2023-02-24T05:11:54.359Z,1.70
2023-02-24T05:13:59.264Z,1.20
2023-02-24T05:16:07.473Z,1.30
2023-02-24T05:18:14.200Z,1.60
2023-02-24T05:20:35.018Z,1.40
2023-02-24T05:22:38.593Z,1.20
2023-02-24T05:24:42.389Z,1.88
2023-02-24T05:26:47.012Z,1.42
2023-02-24T05:28:52.394Z,1.60
2023-02-24T05:30:59.445Z,1.60
2023-02-24T05:33:03.003Z,1.38
2023-02-24T05:35:07.293Z,1.67
2023-02-24T05:37:11.318Z,1.77
2023-02-24T05:39:19.474Z,1.30
2023-02-24T05:41:23.680Z,2.03
2023-02-24T05:43:27.268Z,1.50
2023-02-24T05:45:31.360Z,1.67
2023-02-24T05:47:37.203Z,1.55
2023-02-24T05:49:41.082Z,1.58
2023-02-24T05:51:54.793Z,1.90
2023-02-24T05:54:00.323Z,1.75
2023-02-24T05:56:06.118Z,1.90
2023-02-24T05:58:09.728Z,1.50
2023-02-24T06:00:16.418Z,1.80
2023-02-24T06:02:27.690Z,1.50
2023-02-24T06:06:44.085Z,1.40
2023-02-24T06:08:50.679Z,1.67
2023-02-24T06:10:54.203Z,2.00
2023-02-24T06:12:57.663Z,1.60
2023-02-24T06:15:02.314Z,1.50
2023-02-24T06:17:06.976Z,1.67
2023-02-24T06:19:11.738Z,1.73
2023-02-24T06:21:16.635Z,1.63
2023-02-24T06:23:20.037Z,1.98
2023-02-24T06:25:25.274Z,1.55
2023-02-24T06:27:28.705Z,2.30
2023-02-24T06:29:32.159Z,1.80
2023-02-24T06:31:35.656Z,2.35
2023-02-24T06:33:40.303Z,2.13
2023-02-24T06:35:43.809Z,2.28
2023-02-24T06:37:49.061Z,2.10
2023-02-24T06:39:52.535Z,1.80
2023-02-24T06:41:57.390Z,1.80
2023-02-24T06:44:00.927Z,2.00
2023-02-24T06:46:06.203Z,1.90
2023-02-24T06:48:09.787Z,2.08
2023-02-24T06:50:13.540Z,1.80
2023-02-24T06:52:19.160Z,1.77
2023-02-24T06:54:25.824Z,2.00
2023-02-24T06:56:32.039Z,2.00
2023-02-24T06:58:35.880Z,1.92
2023-02-24T07:00:39.409Z,1.63
2023-02-24T07:02:42.842Z,1.98
2023-02-24T07:04:46.283Z,2.08
2023-02-24T07:06:52.541Z,2.00
2023-02-24T07:08:57.105Z,2.13
2023-02-24T07:11:01.920Z,2.03
2023-02-24T07:13:06.716Z,1.90
2023-02-24T07:15:10.700Z,2.00
2023-02-24T07:17:14.877Z,1.77
2023-02-24T07:19:18.319Z,2.28
2023-02-24T07:21:23.582Z,2.00
2023-02-24T07:23:29.406Z,2.28
2023-02-24T07:25:35.628Z,2.13
2023-02-24T07:27:40.579Z,2.10
2023-02-24T07:29:44.056Z,2.00
2023-02-24T07:31:48.984Z,2.10
2023-02-24T07:33:55.739Z,2.08
2023-02-24T07:35:59.128Z,2.20
2023-02-24T07:38:05.097Z,2.70
2023-02-24T07:40:10.492Z,2.38
2023-02-24T07:42:15.037Z,2.58
2023-02-24T07:44:24.758Z,2.15
2023-02-24T07:46:29.491Z,2.28
2023-02-24T07:48:32.951Z,2.22
2023-02-24T07:50:38.095Z,2.10
2023-02-24T07:52:42.089Z,1.95
2023-02-24T07:54:45.428Z,2.22
2023-02-24T07:56:57.011Z,2.20
2023-02-24T07:59:02.843Z,2.40
2023-02-24T08:01:09.266Z,2.25
2023-02-24T08:03:13.668Z,2.55
2023-02-24T08:05:18.124Z,2.38
2023-02-24T08:07:25.657Z,1.95
2023-02-24T08:09:56.707Z,1.98
2023-02-24T08:12:01.263Z,1.80
2023-02-24T08:14:10.955Z,1.77
2023-02-24T08:16:15.875Z,1.98
2023-02-24T08:18:20.149Z,1.83
2023-02-24T08:20:25.237Z,2.13
2023-02-24T08:22:37.291Z,2.00
2023-02-24T08:24:40.755Z,1.90
2023-02-24T08:26:44.859Z,1.60
2023-02-24T08:28:48.361Z,1.77
2023-02-24T08:30:51.817Z,1.80
2023-02-24T08:32:59.860Z,1.92
2023-02-24T08:35:04.960Z,1.80
2023-02-24T08:37:08.666Z,1.77
2023-02-24T08:39:14.660Z,1.58
2023-02-24T08:41:29.261Z,1.70
2023-02-24T08:43:38.804Z,1.75
2023-02-24T08:45:42.258Z,1.60
2023-02-24T08:47:45.629Z,1.77
2023-02-24T08:49:53.897Z,1.80
2023-02-24T08:52:02.371Z,1.75
2023-02-24T08:54:11.200Z,2.30
2023-02-24T08:56:24.397Z,2.53
2023-02-24T08:58:28.510Z,3.00
2023-02-24T09:00:49.228Z,3.25
2023-02-24T09:02:56.298Z,3.33
2023-02-24T09:05:04.070Z,3.53
2023-02-24T09:07:15.472Z,3.63
2023-02-24T09:11:24.768Z,4.15
2023-02-24T09:13:33.184Z,4.10
2023-02-24T09:15:41.600Z,4.10
2023-02-24T09:18:01.429Z,4.00
2023-02-24T09:20:56.355Z,4.25
2023-02-24T09:23:03.498Z,3.58
2023-02-24T09:25:24.105Z,3.55
2023-02-24T09:27:29.366Z,2.97
2023-02-24T09:29:35.939Z,2.63
2023-02-24T09:31:55.471Z,3.15
2023-02-24T09:34:04.101Z,2.92
2023-02-24T09:36:11.118Z,2.67
2023-02-24T09:38:17.319Z,2.50
2023-02-24T09:40:38.203Z,4.07
2023-02-24T09:42:47.530Z,2.88
2023-02-24T09:44:55.778Z,2.40
2023-02-24T09:47:09.168Z,2.30
2023-02-24T09:49:18.342Z,2.63
2023-02-24T09:51:25.816Z,2.20
2023-02-24T09:53:41.209Z,2.30
2023-02-24T09:56:08.942Z,2.00
2023-02-24T09:58:29.329Z,2.20
2023-02-24T10:00:44.441Z,3.40
2023-02-24T10:03:00.233Z,2.70
2023-02-24T10:05:14.504Z,2.10
2023-02-24T10:07:25.606Z,2.55
2023-02-24T10:09:35.589Z,2.05
2023-02-24T10:11:49.284Z,2.25
2023-02-24T10:14:03.359Z,2.63
2023-02-24T10:16:13.557Z,2.58
2023-02-24T10:18:30.956Z,2.20
2023-02-24T10:20:40.547Z,5.53
2023-02-24T10:22:54.039Z,2.60
2023-02-24T10:25:12.075Z,2.05
2023-02-24T10:27:24.199Z,2.60
2023-02-24T10:29:39.338Z,2.28
2023-02-24T10:31:48.267Z,3.70
2023-02-24T10:33:56.968Z,3.72
2023-02-24T10:36:09.500Z,3.08
2023-02-24T10:38:14.631Z,2.70
2023-02-24T10:40:38.812Z,2.35
2023-02-24T10:42:46.853Z,2.40
2023-02-24T10:45:01.975Z,3.50
2023-02-24T10:47:14.740Z,3.28
2023-02-24T10:49:18.432Z,5.32
2023-02-24T10:51:31.948Z,4.50
2023-02-24T10:53:37.725Z,3.80
2023-02-24T10:56:14.907Z,4.57
2023-02-24T10:58:37.775Z,3.88
2023-02-24T11:00:59.271Z,4.25
2023-02-24T11:03:22.046Z,4.32
2023-02-24T11:05:38.549Z,4.47
2023-02-24T11:07:53.640Z,6.43
2023-02-24T11:10:14.095Z,5.80
2023-02-24T11:12:39.411Z,6.50
2023-02-24T11:15:23.992Z,6.18
2023-02-24T11:17:28.057Z,5.38
2023-02-24T11:19:34.044Z,5.10
2023-02-24T11:21:38.823Z,4.53
2023-02-24T11:23:46.278Z,4.00
2023-02-24T11:25:54.620Z,3.63
2023-02-24T11:27:58.965Z,6.20
2023-02-24T11:30:17.006Z,5.20
2023-02-24T11:32:39.049Z,5.40
2023-02-24T11:34:49.638Z,4.50
2023-02-24T11:37:02.905Z,4.10
2023-02-24T11:39:23.500Z,4.13
2023-02-24T11:41:31.710Z,4.35
2023-02-24T11:43:38.600Z,3.65
2023-02-24T11:45:47.646Z,3.90
2023-02-24T11:47:57.444Z,3.88
2023-02-24T11:50:36.569Z,4.50
2023-02-24T11:52:46.916Z,4.25
2023-02-24T11:54:55.157Z,4.28
2023-02-24T11:57:00.341Z,4.10
2023-02-24T11:59:10.278Z,4.45
2023-02-24T12:01:20.215Z,4.65
2023-02-24T12:03:31.049Z,7.47
2023-02-24T12:05:39.466Z,4.57
2023-02-24T12:07:45.476Z,4.40
2023-02-24T12:10:00.321Z,3.92
2023-02-24T12:14:27.706Z,4.25
2023-02-24T12:16:36.878Z,4.05
2023-02-24T12:18:46.193Z,3.95
2023-02-24T12:20:52.379Z,5.00
2023-02-24T12:22:58.433Z,4.05
2023-02-24T12:25:02.121Z,4.53
2023-02-24T12:27:18.476Z,4.28
2023-02-24T12:29:42.669Z,4.47
2023-02-24T12:31:55.076Z,4.78
2023-02-24T12:34:08.709Z,4.07
2023-02-24T12:36:23.841Z,4.25
2023-02-24T12:38:36.749Z,6.85
2023-02-24T12:40:46.733Z,4.43
2023-02-24T12:43:02.296Z,4.22
2023-02-24T12:45:17.019Z,4.30
2023-02-24T12:47:28.483Z,4.70
2023-02-24T12:49:48.864Z,4.40
2023-02-24T12:52:05.077Z,4.97
2023-02-24T12:54:16.801Z,5.05
2023-02-24T12:56:24.782Z,5.05
2023-02-24T12:58:34.572Z,5.25
2023-02-24T13:00:51.116Z,6.80
2023-02-24T13:03:02.840Z,5.03
2023-02-24T13:05:14.673Z,5.65
2023-02-24T13:07:37.654Z,6.43
2023-02-24T13:09:48.600Z,6.00
2023-02-24T13:11:58.918Z,5.55
2023-02-24T13:14:11.983Z,5.68
2023-02-24T13:16:15.457Z,5.38
2023-02-24T13:18:26.117Z,5.65
2023-02-24T13:20:32.278Z,4.27
2023-02-24T13:22:35.685Z,5.82
2023-02-24T13:24:41.699Z,4.78
2023-02-24T13:26:45.670Z,4.82
2023-02-24T13:29:00.601Z,4.32
2023-02-24T13:31:08.598Z,3.50
2023-02-24T13:33:29.991Z,3.72
2023-02-24T13:35:36.666Z,3.75
2023-02-24T13:37:41.718Z,3.70
2023-02-24T13:39:45.420Z,3.90
2023-02-24T13:41:49.043Z,3.63
2023-02-24T13:43:59.064Z,3.50
2023-02-24T13:46:17.526Z,2.95
2023-02-24T13:48:43.254Z,2.80
2023-02-24T13:51:03.586Z,3.55
2023-02-24T13:53:33.387Z,2.42
2023-02-24T13:55:48.083Z,2.58
2023-02-24T13:58:10.889Z,2.22
2023-02-24T14:00:29.734Z,2.35
2023-02-24T14:02:42.872Z,2.70
2023-02-24T14:04:49.714Z,2.63
2023-02-24T14:06:57.617Z,3.05
2023-02-24T14:09:03.616Z,2.70
2023-02-24T14:11:10.754Z,2.30
2023-02-24T14:13:18.848Z,2.00
2023-02-24T14:15:26.840Z,2.30
2023-02-24T14:17:34.561Z,2.40
2023-02-24T14:19:39.384Z,2.42
2023-02-24T14:21:51.562Z,2.25
2023-02-24T14:24:02.372Z,2.50
2023-02-24T14:26:09.456Z,2.83
2023-02-24T14:28:23.469Z,2.65
2023-02-24T14:30:32.677Z,2.10
2023-02-24T14:32:36.750Z,2.47
2023-02-24T14:34:42.032Z,2.38
2023-02-24T14:36:47.184Z,2.20
2023-02-24T14:39:01.858Z,2.40
2023-02-24T14:41:12.046Z,2.40
2023-02-24T14:43:19.316Z,2.35
2023-02-24T14:45:26.329Z,3.92
2023-02-24T14:47:37.642Z,2.85
2023-02-24T14:51:48.819Z,2.30
2023-02-24T14:53:55.462Z,2.35
2023-02-24T14:56:04.461Z,2.03
2023-02-24T14:58:15.742Z,2.58
2023-02-24T15:00:24.404Z,2.08
2023-02-24T15:02:34.708Z,1.75
2023-02-24T15:04:43.830Z,1.70
2023-02-24T15:09:26.442Z,1.60
2023-02-24T15:11:41.356Z,1.90
2023-02-24T15:13:48.369Z,1.65
2023-02-24T15:16:01.598Z,1.55
2023-02-24T15:18:13.445Z,1.63
2023-02-24T15:20:31.692Z,1.48
2023-02-24T15:22:39.460Z,1.80
2023-02-24T15:24:42.913Z,2.78
2023-02-24T15:26:53.122Z,1.90
2023-02-24T15:29:04.874Z,1.55
2023-02-24T15:31:22.248Z,1.65
2023-02-24T15:33:33.387Z,1.83
2023-02-24T15:35:40.530Z,2.50
2023-02-24T15:37:53.307Z,1.73
2023-02-24T15:42:09.759Z,1.83
2023-02-24T15:44:35.742Z,2.20
2023-02-24T15:46:39.877Z,2.13
2023-02-24T15:48:44.776Z,3.20
2023-02-24T15:50:50.154Z,2.50
2023-02-24T15:52:58.232Z,1.85
2023-02-24T15:55:02.700Z,2.33
2023-02-24T15:57:07.401Z,2.10
2023-02-24T15:59:14.854Z,2.28
2023-02-24T16:01:18.376Z,2.25
2023-02-24T16:03:22.461Z,1.90
2023-02-24T16:05:27.614Z,2.10
2023-02-24T16:07:34.648Z,2.10
2023-02-24T16:09:41.702Z,2.05
2023-02-24T16:11:48.027Z,2.13
2023-02-24T16:13:56.061Z,2.30
2023-02-24T16:15:59.576Z,2.08
2023-02-24T16:18:03.439Z,2.38
2023-02-24T16:20:09.191Z,2.05
2023-02-24T16:22:12.701Z,2.20
2023-02-24T16:24:16.270Z,2.05
2023-02-24T16:26:23.807Z,2.22
2023-02-24T16:28:28.026Z,1.58
2023-02-24T16:30:32.189Z,2.05
2023-02-24T16:32:35.914Z,1.88
2023-02-24T16:34:39.662Z,2.22
2023-02-24T16:36:44.295Z,2.28
2023-02-24T16:38:50.878Z,2.13
2023-02-24T16:40:55.835Z,2.40
2023-02-24T16:43:01.314Z,2.03
2023-02-24T16:45:05.262Z,2.63
2023-02-24T16:47:13.844Z,3.10
2023-02-24T16:49:20.990Z,3.20
2023-02-24T16:51:24.625Z,3.55
2023-02-24T16:53:28.705Z,2.03
2023-02-24T16:55:32.571Z,3.00
2023-02-24T16:57:35.951Z,3.03
2023-02-24T16:59:40.869Z,3.13
2023-02-24T17:01:44.376Z,3.10
2023-02-24T17:03:50.076Z,3.38
2023-02-24T17:05:53.976Z,3.90
2023-02-24T17:07:58.574Z,5.13
2023-02-24T17:10:02.014Z,3.60
2023-02-24T17:12:06.006Z,4.50
2023-02-24T17:14:12.165Z,3.70
2023-02-24T17:16:16.992Z,5.00
2023-02-24T17:18:21.515Z,4.82
2023-02-24T17:20:25.364Z,5.72
2023-02-24T17:22:28.862Z,6.57
2023-02-24T17:24:32.373Z,5.32
2023-02-24T17:26:36.070Z,4.95
2023-02-24T17:28:39.512Z,3.80
2023-02-24T17:30:43.131Z,4.95
2023-02-24T17:32:48.135Z,4.85
2023-02-24T17:34:51.619Z,4.28
2023-02-24T17:36:55.495Z,4.90
2023-02-24T17:38:59.047Z,4.75
2023-02-24T17:41:02.875Z,5.13
2023-02-24T17:43:06.271Z,5.30
2023-02-24T17:45:12.033Z,4.90
2023-02-24T17:47:15.481Z,5.30
2023-02-24T17:49:20.264Z,5.70
2023-02-24T17:51:23.832Z,5.32
2023-02-24T17:53:28.558Z,5.90
2023-02-24T17:55:31.971Z,6.40
2023-02-24T17:57:36.242Z,6.15
2023-02-24T17:59:39.630Z,5.72
2023-02-24T18:01:42.990Z,6.97
2023-02-24T18:03:46.548Z,6.32
2023-02-24T18:05:59.217Z,5.82
2023-02-24T18:08:02.662Z,5.68
2023-02-24T18:10:07.467Z,5.65
2023-02-24T18:12:10.883Z,5.80
2023-02-24T18:14:14.771Z,6.15
2023-02-24T18:16:18.248Z,6.60
2023-02-24T18:18:21.738Z,5.68
2023-02-24T18:20:25.801Z,5.90
2023-02-24T18:22:30.653Z,5.88
2023-02-24T18:24:34.573Z,6.10
2023-02-24T18:26:38.038Z,6.03
2023-02-24T18:28:41.461Z,6.18
2023-02-24T18:30:44.896Z,5.72
2023-02-24T18:32:50.021Z,6.28
2023-02-24T18:34:53.533Z,5.85
2023-02-24T18:36:57.000Z,5.78
2023-02-24T18:39:01.837Z,5.30
2023-02-24T18:41:07.009Z,5.63
2023-02-24T18:43:10.464Z,6.07
2023-02-24T18:45:13.968Z,6.72
2023-02-24T18:47:17.422Z,7.07
2023-02-24T18:49:20.816Z,6.82
2023-02-24T18:51:26.305Z,5.43
2023-02-24T18:53:31.892Z,7.70
2023-02-24T18:55:37.514Z,6.47
2023-02-24T18:57:41.286Z,5.72
2023-02-24T18:59:44.804Z,6.80
2023-02-24T19:01:48.913Z,6.13
2023-02-24T19:03:53.348Z,6.30
2023-02-24T19:05:56.751Z,6.00
2023-02-24T19:08:00.114Z,5.80
2023-02-24T19:10:03.591Z,5.97
2023-02-24T19:12:09.064Z,5.72
2023-02-24T19:14:14.045Z,5.50
2023-02-24T19:16:18.414Z,5.35
2023-02-24T19:18:21.815Z,6.20
2023-02-24T19:20:25.177Z,5.15
2023-02-24T19:22:29.617Z,5.18
2023-02-24T19:24:34.302Z,5.05
2023-02-24T19:26:39.342Z,5.70
2023-02-24T19:28:45.080Z,7.32
2023-02-24T19:30:49.237Z,5.18
2023-02-24T19:32:53.451Z,6.00
2023-02-24T19:34:57.388Z,6.25
2023-02-24T19:37:00.854Z,5.72
2023-02-24T19:39:04.832Z,5.38
2023-02-24T19:41:08.283Z,5.80
2023-02-24T19:43:12.439Z,5.43
2023-02-24T19:45:17.658Z,6.32
2023-02-24T19:47:21.459Z,5.47
2023-02-24T19:49:25.185Z,5.93
2023-02-24T19:51:29.380Z,5.80
2023-02-24T19:53:32.814Z,5.93
2023-02-24T19:55:37.079Z,6.03
2023-02-24T19:57:40.762Z,5.50
2023-02-24T19:59:44.869Z,6.55
2023-02-24T20:01:52.717Z,5.82
2023-02-24T20:03:58.440Z,6.43
2023-02-24T20:06:02.500Z,5.25
2023-02-24T20:08:06.339Z,5.93
2023-02-24T20:10:11.767Z,5.03
2023-02-24T20:12:15.780Z,4.32
2023-02-24T20:14:20.984Z,4.22
2023-02-24T20:16:26.533Z,4.72
2023-02-24T20:18:31.955Z,4.45
2023-02-24T20:20:37.373Z,4.65
2023-02-24T20:22:41.440Z,4.82
2023-02-24T20:24:45.221Z,4.18
2023-02-24T20:26:51.215Z,4.50
2023-02-24T20:28:55.485Z,3.97
2023-02-24T20:31:06.600Z,4.40
2023-02-24T20:33:13.597Z,4.15
2023-02-24T20:35:18.793Z,4.07
2023-02-24T20:37:22.264Z,4.15
2023-02-24T20:39:25.995Z,4.68
2023-02-24T20:41:30.728Z,4.47
2023-02-24T20:43:34.600Z,4.75
2023-02-24T20:45:41.067Z,5.15
2023-02-24T20:47:44.551Z,4.93
2023-02-24T20:49:48.009Z,4.95
2023-02-24T20:51:52.943Z,4.40
2023-02-24T20:53:58.376Z,5.22
2023-02-24T20:56:02.894Z,4.70
2023-02-24T20:58:06.569Z,4.45
2023-02-24T21:00:11.230Z,4.38
2023-02-24T21:02:14.689Z,4.10
2023-02-24T21:04:20.649Z,4.18
2023-02-24T21:06:25.044Z,4.07
2023-02-24T21:08:30.105Z,3.90
2023-02-24T21:10:33.560Z,4.35
2023-02-24T21:12:36.948Z,3.08
2023-02-24T21:14:41.348Z,4.07
2023-02-24T21:16:46.952Z,3.28
2023-02-24T21:18:53.244Z,3.00
2023-02-24T21:20:56.754Z,3.22
2023-02-24T21:23:00.500Z,3.03
2023-02-24T21:25:05.925Z,2.75
2023-02-24T21:27:09.904Z,2.65
2023-02-24T21:29:13.271Z,2.30
2023-02-24T21:31:20.413Z,3.17
2023-02-24T21:33:23.980Z,2.50
2023-02-24T21:35:27.490Z,2.22
2023-02-24T21:37:32.853Z,2.35
2023-02-24T21:39:37.210Z,1.67
2023-02-24T21:41:42.023Z,2.03
2023-02-24T21:43:45.430Z,1.40
2023-02-24T21:45:49.740Z,1.80
2023-02-24T21:47:53.150Z,1.60
2023-02-24T21:49:56.498Z,1.42
2023-02-24T21:52:00.082Z,1.48
2023-02-24T21:54:04.935Z,1.10
2023-02-24T21:56:11.105Z,1.63
2023-02-24T21:58:17.427Z,1.30
2023-02-24T22:00:22.416Z,0.93
2023-02-24T22:02:26.956Z,1.00
2023-02-24T22:04:30.381Z,1.10
2023-02-24T22:06:35.637Z,0.70
2023-02-24T22:08:43.408Z,0.90
2023-02-24T22:10:47.388Z,1.10
2023-02-24T22:12:51.014Z,0.90
2023-02-24T22:14:55.818Z,1.02
2023-02-24T22:16:59.638Z,1.00
2023-02-24T22:19:03.278Z,1.08
2023-02-24T22:21:08.506Z,0.95
2023-02-24T22:23:11.958Z,0.82
2023-02-24T22:25:15.387Z,1.10
2023-02-24T22:27:19.032Z,1.13
2023-02-24T22:29:22.452Z,0.70
2023-02-24T22:31:30.399Z,0.90
2023-02-24T22:33:36.143Z,1.00
2023-02-24T22:35:39.557Z,1.00
2023-02-24T22:37:43.147Z,1.05
2023-02-24T22:39:46.507Z,1.08
2023-02-24T22:41:52.440Z,0.93
2023-02-24T22:43:55.861Z,1.10
2023-02-24T22:46:00.729Z,1.15
2023-02-24T22:48:05.686Z,1.20
2023-02-24T22:50:10.749Z,0.90
2023-02-24T22:52:16.770Z,1.00
2023-02-24T22:54:20.316Z,1.13
2023-02-24T22:56:26.915Z,1.00
2023-02-24T22:58:30.441Z,1.00
2023-02-24T23:00:33.923Z,1.10
2023-02-24T23:02:37.602Z,0.80
2023-02-24T23:04:44.092Z,0.90
2023-02-24T23:06:48.399Z,1.17
2023-02-24T23:08:52.941Z,1.02
2023-02-24T23:10:57.245Z,1.10
2023-02-24T23:13:00.642Z,1.15
2023-02-24T23:15:04.232Z,1.15
2023-02-24T23:17:08.664Z,1.00
2023-02-24T23:19:16.143Z,1.20
2023-02-24T23:21:23.481Z,1.10
2023-02-24T23:23:27.302Z,0.93
2023-02-24T23:25:31.342Z,1.20
2023-02-24T23:27:35.439Z,1.17
2023-02-24T23:29:38.788Z,0.90
2023-02-24T23:31:43.371Z,1.20
2023-02-24T23:33:46.957Z,0.95
2023-02-24T23:35:51.005Z,1.02
2023-02-24T23:37:55.811Z,1.13
2023-02-24T23:39:59.218Z,0.90
2023-02-24T23:42:02.656Z,1.02
2023-02-24T23:44:07.398Z,1.08
2023-02-24T23:46:12.975Z,0.98
2023-02-24T23:48:16.517Z,1.00
2023-02-24T23:50:20.319Z,0.95
2023-02-24T23:52:24.154Z,1.30
2023-02-24T23:54:29.033Z,1.10
2023-02-24T23:56:32.397Z,1.00
2023-02-24T23:58:35.977Z,1.30
